createdAt,value
2018-09-04T00:02:23.133Z,11.83
2018-09-04T00:04:50.824Z,13.10
2018-09-04T00:07:21.901Z,14.03
2018-09-04T00:09:50.443Z,12.80
2018-09-04T00:12:18.345Z,14.07
2018-09-04T00:14:46.893Z,12.90
2018-09-04T00:17:14.635Z,14.27
2018-09-04T00:19:42.510Z,14.03
2018-09-04T00:22:10.630Z,12.13
2018-09-04T00:24:38.410Z,14.90
2018-09-04T00:27:06.690Z,11.53
2018-09-04T00:29:34.926Z,13.97
2018-09-04T00:32:03.253Z,13.60
2018-09-04T00:34:31.541Z,13.90
2018-09-04T00:36:59.908Z,15.03
2018-09-04T00:39:27.776Z,12.77
2018-09-04T00:41:55.786Z,14.17
2018-09-04T00:44:23.634Z,13.93
2018-09-04T00:46:51.431Z,14.20
2018-09-04T00:49:19.400Z,14.93
2018-09-04T00:51:47.328Z,22.53
2018-09-04T00:54:15.668Z,23.40
2018-09-04T00:56:43.730Z,17.13
2018-09-04T00:59:11.677Z,16.80
2018-09-04T01:01:40.324Z,17.67
2018-09-04T01:04:08.128Z,16.20
2018-09-04T01:06:36.863Z,16.40
2018-09-04T01:09:06.357Z,15.70
2018-09-04T01:11:35.041Z,14.70
2018-09-04T01:14:03.031Z,16.60
2018-09-04T01:16:31.058Z,18.80
2018-09-04T01:18:59.059Z,23.10
2018-09-04T01:21:26.965Z,15.47
2018-09-04T01:23:54.965Z,19.23
2018-09-04T01:26:22.940Z,13.20
2018-09-04T01:28:50.883Z,14.20
2018-09-04T01:31:18.801Z,15.50
2018-09-04T01:33:47.029Z,14.53
2018-09-04T01:36:15.085Z,15.93
2018-09-04T01:38:43.046Z,20.83
2018-09-04T01:41:11.515Z,18.10
2018-09-04T01:43:39.808Z,17.90
2018-09-04T01:46:07.738Z,14.33
2018-09-04T01:48:35.699Z,22.10
2018-09-04T01:51:03.773Z,13.33
2018-09-04T01:53:31.617Z,14.77
2018-09-04T01:55:59.813Z,14.93
2018-09-04T01:58:27.841Z,12.40
2018-09-04T02:00:55.981Z,19.43
2018-09-04T02:03:23.974Z,14.00
2018-09-04T02:05:52.140Z,16.73
2018-09-04T02:08:20.359Z,17.50
2018-09-04T02:10:49.741Z,16.83
2018-09-04T02:13:17.724Z,13.20
2018-09-04T02:15:45.682Z,23.40
2018-09-04T02:18:13.726Z,18.93
2018-09-04T02:20:42.017Z,11.73
2018-09-04T02:23:09.789Z,13.80
2018-09-04T02:25:37.767Z,35.33
2018-09-04T02:28:05.618Z,34.47
2018-09-04T02:30:33.543Z,18.70
2018-09-04T02:33:02.111Z,33.10
2018-09-04T02:35:30.010Z,22.23
2018-09-04T02:37:57.926Z,27.20
2018-09-04T02:40:26.184Z,30.37
2018-09-04T02:42:54.831Z,15.07
2018-09-04T02:45:22.822Z,18.60
2018-09-04T02:47:51.243Z,20.90
2018-09-04T02:50:19.433Z,25.80
2018-09-04T02:52:47.443Z,14.97
2018-09-04T02:55:15.780Z,20.37
2018-09-04T02:57:44.207Z,13.93
2018-09-04T03:00:12.333Z,13.80
2018-09-04T03:02:41.114Z,13.40
2018-09-04T03:05:09.394Z,34.53
2018-09-04T03:07:38.206Z,24.80
2018-09-04T03:10:06.976Z,17.23
2018-09-04T03:12:34.941Z,13.77
2018-09-04T03:15:03.721Z,13.40
2018-09-04T03:17:31.566Z,14.77
2018-09-04T03:19:59.665Z,13.00
2018-09-04T03:22:27.592Z,12.63
2018-09-04T03:24:55.995Z,12.30
2018-09-04T03:27:23.838Z,13.70
2018-09-04T03:29:51.937Z,13.20
2018-09-04T03:32:20.306Z,18.80
2018-09-04T03:34:48.134Z,13.20
2018-09-04T03:37:16.135Z,20.17
2018-09-04T03:39:44.034Z,21.37
2018-09-04T03:42:12.031Z,12.93
2018-09-04T03:44:40.236Z,13.97
2018-09-04T03:47:08.262Z,13.70
2018-09-04T03:49:36.521Z,17.37
2018-09-04T03:52:04.408Z,12.73
2018-09-04T03:54:32.669Z,13.00
2018-09-04T03:57:01.270Z,22.03
2018-09-04T03:59:29.565Z,16.10
2018-09-04T04:01:57.664Z,45.40
2018-09-04T04:04:25.689Z,32.70
2018-09-04T04:06:53.729Z,46.03
2018-09-04T04:09:21.785Z,37.90
2018-09-04T04:11:49.874Z,37.20
2018-09-04T04:14:18.092Z,44.20
2018-09-04T04:16:46.204Z,41.30
2018-09-04T04:19:14.097Z,21.53
2018-09-04T04:21:41.846Z,30.97
2018-09-04T04:24:09.769Z,24.40
2018-09-04T04:26:37.889Z,39.90
2018-09-04T04:29:05.828Z,39.53
2018-09-04T04:31:34.193Z,30.97
2018-09-04T04:34:02.344Z,23.03
2018-09-04T04:36:30.325Z,14.90
2018-09-04T04:38:59.285Z,12.53
2018-09-04T04:41:27.610Z,18.90
2018-09-04T04:43:55.567Z,12.63
2018-09-04T04:46:23.308Z,15.97
2018-09-04T04:48:51.053Z,15.90
2018-09-04T04:51:19.246Z,17.77
2018-09-04T04:53:47.147Z,12.03
2018-09-04T04:56:15.310Z,17.20
2018-09-04T04:58:43.762Z,16.03
2018-09-04T05:01:11.822Z,19.43
2018-09-04T05:03:39.609Z,15.43
2018-09-04T05:06:07.607Z,12.20
2018-09-04T05:08:35.724Z,13.63
2018-09-04T05:11:03.763Z,12.87
2018-09-04T05:13:32.146Z,13.97
2018-09-04T05:16:00.376Z,12.83
2018-09-04T05:18:28.519Z,17.27
2018-09-04T05:20:56.491Z,12.50
2018-09-04T05:23:24.582Z,12.97
2018-09-04T05:25:52.445Z,14.77
2018-09-04T05:28:20.379Z,14.00
2018-09-04T05:30:48.252Z,12.40
2018-09-04T05:33:20.866Z,11.53
2018-09-04T05:35:57.350Z,13.00
2018-09-04T05:38:25.703Z,14.13
2018-09-04T05:40:53.908Z,16.57
2018-09-04T05:43:36.927Z,16.50
2018-09-04T05:46:07.898Z,14.30
2018-09-04T05:48:35.789Z,29.17
2018-09-04T05:51:03.733Z,29.50
2018-09-04T05:53:31.745Z,33.07
2018-09-04T05:55:59.879Z,25.30
2018-09-04T05:58:28.148Z,36.40
2018-09-04T06:00:58.669Z,29.07
2018-09-04T06:03:26.787Z,26.23
2018-09-04T06:05:55.022Z,34.53
2018-09-04T06:08:22.970Z,35.23
2018-09-04T06:10:51.089Z,28.23
2018-09-04T06:13:19.349Z,26.17
2018-09-04T06:15:47.596Z,25.90
2018-09-04T06:18:15.438Z,30.50
2018-09-04T06:20:43.567Z,22.67
2018-09-04T06:23:11.479Z,25.80
2018-09-04T06:25:39.620Z,26.43
2018-09-04T06:28:07.623Z,21.70
2018-09-04T06:30:37.793Z,25.47
2018-09-04T06:33:06.148Z,23.37
2018-09-04T06:35:34.064Z,24.10
2018-09-04T06:38:01.976Z,25.90
2018-09-04T06:40:29.953Z,28.17
2018-09-04T06:42:57.631Z,27.13
2018-09-04T06:45:25.452Z,33.90
2018-09-04T06:47:53.494Z,32.10
2018-09-04T06:50:21.215Z,34.10
2018-09-04T06:52:49.920Z,27.10
2018-09-04T06:55:17.999Z,27.77
2018-09-04T06:57:45.819Z,28.27
2018-09-04T07:00:14.477Z,29.53
2018-09-04T07:02:44.385Z,31.83
2018-09-04T07:05:12.933Z,32.03
2018-09-04T07:07:41.413Z,29.10
2018-09-04T07:10:09.942Z,38.50
2018-09-04T07:12:39.387Z,33.00
2018-09-04T07:15:07.564Z,34.00
2018-09-04T07:17:35.718Z,36.40
2018-09-04T07:20:04.232Z,35.10
2018-09-04T07:22:32.378Z,41.30
2018-09-04T07:25:00.713Z,31.47
2018-09-04T07:27:29.071Z,32.77
2018-09-04T07:29:57.198Z,36.63
2018-09-04T07:32:25.492Z,31.70
2018-09-04T07:34:53.611Z,38.27
2018-09-04T07:37:21.689Z,36.37
2018-09-04T07:39:49.822Z,36.20
2018-09-04T07:42:18.418Z,38.13
2018-09-04T07:44:46.407Z,40.13
2018-09-04T07:47:15.020Z,34.00
2018-09-04T07:49:43.044Z,35.70
2018-09-04T07:52:11.511Z,49.27
2018-09-04T07:54:39.566Z,58.57
2018-09-04T07:57:07.440Z,64.97
2018-09-04T07:59:35.733Z,59.27
2018-09-04T08:02:03.691Z,62.00
2018-09-04T08:04:31.621Z,56.10
2018-09-04T08:06:59.590Z,66.93
2018-09-04T08:09:28.678Z,64.67
2018-09-04T08:11:56.696Z,68.10
2018-09-04T08:14:25.085Z,66.40
2018-09-04T08:16:53.165Z,65.93
2018-09-04T08:19:21.693Z,64.27
2018-09-04T08:21:50.009Z,67.60
2018-09-04T08:24:17.825Z,66.93
2018-09-04T08:26:46.305Z,65.40
2018-09-04T08:29:14.154Z,63.43
2018-09-04T08:31:42.268Z,57.60
2018-09-04T08:34:10.437Z,58.10
2018-09-04T08:36:38.753Z,59.57
2018-09-04T08:39:08.133Z,56.70
2018-09-04T08:41:37.444Z,53.93
2018-09-04T08:44:05.748Z,54.23
2018-09-04T08:46:34.778Z,53.33
2018-09-04T08:49:03.355Z,55.43
2018-09-04T08:51:32.702Z,51.47
2018-09-04T08:54:00.527Z,51.93
2018-09-04T08:56:28.653Z,52.33
2018-09-04T08:58:56.455Z,48.20
2018-09-04T09:01:24.636Z,53.47
2018-09-04T09:03:52.692Z,54.27
2018-09-04T09:06:20.796Z,53.50
2018-09-04T09:08:49.044Z,52.73
2018-09-04T09:11:17.376Z,50.13
2018-09-04T09:13:45.614Z,53.33
2018-09-04T09:16:13.508Z,47.10
2018-09-04T09:18:41.539Z,42.40
2018-09-04T09:21:09.578Z,48.27
2018-09-04T09:23:38.405Z,49.00
2018-09-04T09:26:06.848Z,50.87
2018-09-04T09:28:35.183Z,50.33
2018-09-04T09:31:03.335Z,47.33
2018-09-04T09:33:31.642Z,49.37
2018-09-04T09:35:59.999Z,45.27
2018-09-04T09:38:28.084Z,47.10
2018-09-04T09:40:56.048Z,43.03
2018-09-04T09:43:24.420Z,42.00
2018-09-04T09:45:52.270Z,42.87
2018-09-04T09:48:20.586Z,42.10
2018-09-04T09:50:48.496Z,43.23
2018-09-04T09:53:16.831Z,39.33
2018-09-04T09:55:44.983Z,43.33
2018-09-04T09:58:12.949Z,41.37
2018-09-04T10:00:46.761Z,37.00
2018-09-04T10:04:20.233Z,46.87
2018-09-04T10:06:48.690Z,36.50
2018-09-04T10:09:16.828Z,45.60
2018-09-04T10:11:44.869Z,34.23
2018-09-04T10:14:13.077Z,35.43
2018-09-04T10:16:40.917Z,37.23
2018-09-04T10:19:08.970Z,34.80
2018-09-04T10:21:37.255Z,36.10
2018-09-04T10:24:05.427Z,34.40
2018-09-04T10:26:33.707Z,36.50
2018-09-04T10:29:01.707Z,30.33
2018-09-04T10:31:29.920Z,32.57
2018-09-04T10:33:57.666Z,36.77
2018-09-04T10:36:25.753Z,31.50
2018-09-04T10:38:59.770Z,40.70
2018-09-04T10:41:27.776Z,36.83
2018-09-04T10:43:56.684Z,35.67
2018-09-04T10:46:25.152Z,33.70
2018-09-04T10:48:53.184Z,44.83
2018-09-04T10:51:21.246Z,30.27
2018-09-04T10:53:50.312Z,33.00
2018-09-04T10:56:18.411Z,33.20
2018-09-04T10:58:46.310Z,34.77
2018-09-04T11:01:14.083Z,31.83
2018-09-04T11:03:42.054Z,30.90
2018-09-04T11:06:10.172Z,28.00
2018-09-04T11:08:38.121Z,28.93
2018-09-04T11:11:06.196Z,30.80
2018-09-04T11:13:34.537Z,30.03
2018-09-04T11:16:02.224Z,32.37
2018-09-04T11:18:30.854Z,29.17
2018-09-04T11:20:58.765Z,31.20
2018-09-04T11:23:26.821Z,31.40
2018-09-04T11:25:54.840Z,31.30
2018-09-04T11:28:22.721Z,26.90
2018-09-04T11:30:50.998Z,23.50
2018-09-04T11:33:19.122Z,30.23
2018-09-04T11:35:47.340Z,30.03
2018-09-04T11:38:15.169Z,27.40
2018-09-04T11:40:43.424Z,29.13
2018-09-04T11:43:11.562Z,28.20
2018-09-04T11:45:39.393Z,26.00
2018-09-04T11:48:07.705Z,24.13
2018-09-04T11:50:35.906Z,27.73
2018-09-04T11:53:04.985Z,31.87
2018-09-04T11:55:32.804Z,24.00
2018-09-04T11:58:01.218Z,27.93
2018-09-04T12:00:35.139Z,22.43
2018-09-04T12:03:03.303Z,21.13
2018-09-04T12:05:31.391Z,22.93
2018-09-04T12:07:59.206Z,22.60
2018-09-04T12:10:27.049Z,23.73
2018-09-04T12:12:55.102Z,22.13
2018-09-04T12:15:23.350Z,18.83
2018-09-04T12:17:51.646Z,20.17
2018-09-04T12:20:54.030Z,22.90
2018-09-04T12:23:22.264Z,29.43
2018-09-04T12:25:51.697Z,25.40
2018-09-04T12:28:20.058Z,24.00
2018-09-04T12:30:48.396Z,23.67
2018-09-04T12:33:16.154Z,22.90
2018-09-04T12:35:44.876Z,19.13
2018-09-04T12:38:14.539Z,19.33
2018-09-04T12:40:42.857Z,20.70
2018-09-04T12:43:10.911Z,25.40
2018-09-04T12:45:44.601Z,16.10
2018-09-04T12:48:17.403Z,17.93
2018-09-04T12:50:45.351Z,23.50
2018-09-04T12:53:13.327Z,22.33
2018-09-04T12:55:41.550Z,19.63
2018-09-04T12:58:09.869Z,23.63
2018-09-04T13:00:38.228Z,16.23
2018-09-04T13:03:06.413Z,17.43
2018-09-04T13:05:34.794Z,17.10
2018-09-04T13:08:03.027Z,17.87
2018-09-04T13:10:31.272Z,20.33
2018-09-04T13:12:59.326Z,22.43
2018-09-04T13:15:27.394Z,14.33
2018-09-04T13:17:55.489Z,15.10
2018-09-04T13:20:23.896Z,15.37
2018-09-04T13:22:52.496Z,17.03
2018-09-04T13:25:20.919Z,13.53
2018-09-04T13:27:49.113Z,16.20
2018-09-04T13:30:17.210Z,13.60
2018-09-04T13:32:45.702Z,17.23
2018-09-04T13:35:13.837Z,17.50
2018-09-04T13:37:41.947Z,15.57
2018-09-04T13:40:10.730Z,12.70
2018-09-04T13:42:39.099Z,12.93
2018-09-04T13:45:07.084Z,16.00
2018-09-04T13:47:35.383Z,14.00
2018-09-04T13:50:04.253Z,13.30
2018-09-04T13:52:33.557Z,18.00
2018-09-04T13:55:01.813Z,16.70
2018-09-04T13:57:30.245Z,18.80
2018-09-04T13:59:58.321Z,15.07
2018-09-04T14:02:26.716Z,13.70
2018-09-04T14:04:55.079Z,14.30
2018-09-04T14:07:24.136Z,13.23
2018-09-04T14:09:52.331Z,17.60
2018-09-04T14:12:20.702Z,12.53
2018-09-04T14:14:50.929Z,12.47
2018-09-04T14:17:20.009Z,11.50
2018-09-04T14:19:48.203Z,12.80
2018-09-04T14:22:16.636Z,16.10
2018-09-04T14:24:44.875Z,16.80
2018-09-04T14:27:13.360Z,12.67
2018-09-04T14:30:15.540Z,15.10
2018-09-04T14:32:10.080Z,14.50
2018-09-04T14:34:38.165Z,13.83
2018-09-04T14:37:06.608Z,12.70
2018-09-04T14:39:34.710Z,12.87
2018-09-04T14:42:02.860Z,14.33
2018-09-04T14:44:30.710Z,14.80
2018-09-04T14:46:58.975Z,12.27
2018-09-04T14:49:26.959Z,13.53
2018-09-04T14:51:55.032Z,12.17
2018-09-04T14:54:22.881Z,15.73
2018-09-04T14:56:51.223Z,11.43
2018-09-04T14:59:19.329Z,11.27
2018-09-04T15:01:47.525Z,10.40
2018-09-04T15:04:15.677Z,10.30
2018-09-04T15:06:44.036Z,10.50
2018-09-04T15:09:12.353Z,11.53
2018-09-04T15:11:41.015Z,9.50
2018-09-04T15:14:09.867Z,11.10
2018-09-04T15:16:38.227Z,13.60
2018-09-04T15:19:06.990Z,11.43
2018-09-04T15:21:35.750Z,11.23
2018-09-04T15:24:03.760Z,17.17
2018-09-04T15:26:32.711Z,11.47
2018-09-04T15:29:00.796Z,13.83
2018-09-04T15:31:28.911Z,14.03
2018-09-04T15:33:56.878Z,11.20
2018-09-04T15:36:24.980Z,10.17
2018-09-04T15:38:53.171Z,16.70
2018-09-04T15:41:21.827Z,11.17
2018-09-04T15:43:49.905Z,20.23
2018-09-04T15:46:18.598Z,10.67
2018-09-04T15:48:51.081Z,12.10
2018-09-04T15:51:19.805Z,15.27
2018-09-04T15:53:48.018Z,17.23
2018-09-04T15:56:16.050Z,15.53
2018-09-04T15:58:44.662Z,11.33
2018-09-04T16:01:13.173Z,13.07
2018-09-04T16:03:41.384Z,11.47
2018-09-04T16:06:09.706Z,13.97
2018-09-04T16:08:38.024Z,14.93
2018-09-04T16:11:06.968Z,10.57
2018-09-04T16:13:35.596Z,11.10
2018-09-04T16:16:03.915Z,11.37
2018-09-04T16:18:32.515Z,11.37
2018-09-04T16:21:01.134Z,10.70
2018-09-04T16:23:30.337Z,14.03
2018-09-04T16:25:59.371Z,13.50
2018-09-04T16:28:28.392Z,11.27
2018-09-04T16:30:57.901Z,11.30
2018-09-04T16:33:25.919Z,13.93
2018-09-04T16:35:55.016Z,11.27
2018-09-04T16:38:23.874Z,12.50
2018-09-04T16:40:52.207Z,12.67
2018-09-04T16:43:21.036Z,13.20
2018-09-04T16:45:49.692Z,13.73
2018-09-04T16:48:17.697Z,13.23
2018-09-04T16:50:45.987Z,10.53
2018-09-04T16:53:14.383Z,16.13
2018-09-04T16:55:42.681Z,15.00
2018-09-04T16:58:10.931Z,12.30
2018-09-04T17:00:38.959Z,12.37
2018-09-04T17:03:08.179Z,11.70
2018-09-04T17:05:36.240Z,11.83
2018-09-04T17:08:04.784Z,16.67
2018-09-04T17:10:33.458Z,15.70
2018-09-04T17:13:01.729Z,11.20
2018-09-04T17:15:29.688Z,12.00
2018-09-04T17:17:57.720Z,15.93
2018-09-04T17:20:25.526Z,14.93
2018-09-04T17:22:54.060Z,11.40
2018-09-04T17:25:22.327Z,11.57
2018-09-04T17:27:50.740Z,14.63
2018-09-04T17:30:19.014Z,19.23
2018-09-04T17:32:48.196Z,20.37
2018-09-04T17:35:16.175Z,18.33
2018-09-04T17:37:45.075Z,11.30
2018-09-04T17:40:13.839Z,12.53
2018-09-04T17:42:41.939Z,14.13
2018-09-04T17:45:10.065Z,14.20
2018-09-04T17:47:38.275Z,11.97
2018-09-04T17:50:06.802Z,12.10
2018-09-04T17:52:37.107Z,12.83
2018-09-04T17:55:05.603Z,12.40
2018-09-04T17:57:33.766Z,13.57
2018-09-04T18:00:02.903Z,10.87
2018-09-04T18:02:31.389Z,13.63
2018-09-04T18:05:00.269Z,11.97
2018-09-04T18:07:28.684Z,16.63
2018-09-04T18:09:56.954Z,12.10
2018-09-04T18:12:25.072Z,15.30
2018-09-04T18:15:00.212Z,12.90
2018-09-04T18:17:28.464Z,17.63
2018-09-04T18:19:56.480Z,17.00
2018-09-04T18:22:24.612Z,12.83
2018-09-04T18:24:53.114Z,22.30
2018-09-04T18:27:21.089Z,14.23
2018-09-04T18:29:49.098Z,19.73
2018-09-04T18:32:17.470Z,14.57
2018-09-04T18:34:46.117Z,14.93
2018-09-04T18:37:14.292Z,16.37
2018-09-04T18:39:43.175Z,17.07
2018-09-04T18:42:11.396Z,13.70
2018-09-04T18:44:39.848Z,14.63
2018-09-04T18:47:08.054Z,13.70
2018-09-04T18:49:36.396Z,14.53
2018-09-04T18:52:04.934Z,14.73
2018-09-04T18:54:33.353Z,13.53
2018-09-04T18:57:02.077Z,15.30
2018-09-04T18:59:30.688Z,14.90
2018-09-04T19:01:58.862Z,12.80
2018-09-04T19:04:27.143Z,14.83
2018-09-04T19:06:55.884Z,13.40
2018-09-04T19:09:24.136Z,17.07
2018-09-04T19:11:52.576Z,19.60
2018-09-04T19:14:22.717Z,15.27
2018-09-04T19:16:51.565Z,14.90
2018-09-04T19:19:19.672Z,13.80
2018-09-04T19:21:47.664Z,12.57
2018-09-04T19:24:16.284Z,13.70
2018-09-04T19:26:44.767Z,11.10
2018-09-04T19:29:18.828Z,17.60
2018-09-04T19:31:47.025Z,18.37
2018-09-04T19:34:16.024Z,19.33
2018-09-04T19:36:44.543Z,13.73
2018-09-04T19:39:13.650Z,23.20
2018-09-04T19:41:41.844Z,15.07
2018-09-04T19:44:09.935Z,14.07
2018-09-04T19:46:39.899Z,21.67
2018-09-04T19:49:08.014Z,14.37
2018-09-04T19:51:37.122Z,14.03
2018-09-04T19:54:05.910Z,18.87
2018-09-04T19:56:35.802Z,20.43
2018-09-04T19:59:04.480Z,15.43
2018-09-04T20:01:32.901Z,21.93
2018-09-04T20:04:01.569Z,17.20
2018-09-04T20:06:30.076Z,14.90
2018-09-04T20:08:58.073Z,16.50
2018-09-04T20:11:26.838Z,16.00
2018-09-04T20:13:56.709Z,14.10
2018-09-04T20:16:26.210Z,13.50
2018-09-04T20:18:54.869Z,13.83
2018-09-04T20:21:22.991Z,12.50
2018-09-04T20:23:51.349Z,23.53
2018-09-04T20:26:19.394Z,16.97
2018-09-04T20:28:47.206Z,17.03
2018-09-04T20:31:16.087Z,19.33
2018-09-04T20:33:44.030Z,16.30
2018-09-04T20:36:12.205Z,17.13
2018-09-04T20:38:40.317Z,17.90
2018-09-04T20:41:08.523Z,13.67
2018-09-04T20:43:37.044Z,13.73
2018-09-04T20:46:04.989Z,15.07
2018-09-04T20:48:33.115Z,16.00
2018-09-04T20:51:01.281Z,15.93
2018-09-04T20:53:29.458Z,15.47
2018-09-04T20:55:57.559Z,15.10
2018-09-04T20:58:36.798Z,14.43
2018-09-04T21:01:16.161Z,15.70
2018-09-04T21:03:55.597Z,17.53
2018-09-04T21:06:35.545Z,14.20
2018-09-04T21:09:13.036Z,19.43
2018-09-04T21:11:41.705Z,17.03
2018-09-04T21:14:10.639Z,13.87
2018-09-04T21:16:39.615Z,17.27
2018-09-04T21:19:07.631Z,13.33
2018-09-04T21:21:36.510Z,16.37
2018-09-04T21:24:04.819Z,17.13
2018-09-04T21:26:33.127Z,12.50
2018-09-04T21:29:01.668Z,16.83
2018-09-04T21:31:30.022Z,14.37
2018-09-04T21:33:58.242Z,14.40
2018-09-04T21:36:26.205Z,14.00
2018-09-04T21:38:54.192Z,13.90
2018-09-04T21:41:22.005Z,13.20
2018-09-04T21:43:50.044Z,16.97
2018-09-04T21:46:18.170Z,18.37
2018-09-04T21:48:46.362Z,16.53
2018-09-04T21:51:14.386Z,18.00
2018-09-04T21:53:42.633Z,15.77
2018-09-04T21:56:10.475Z,14.30
2018-09-04T21:58:38.619Z,21.43
2018-09-04T22:01:06.961Z,18.10
2018-09-04T22:03:34.951Z,15.90
2018-09-04T22:06:02.937Z,15.67
2018-09-04T22:08:30.737Z,15.90
2018-09-04T22:10:58.895Z,15.60
2018-09-04T22:13:27.594Z,14.03
2018-09-04T22:15:55.603Z,15.50
2018-09-04T22:18:23.897Z,17.80
2018-09-04T22:20:52.342Z,15.43
2018-09-04T22:23:20.183Z,17.10
2018-09-04T22:25:48.533Z,20.37
2018-09-04T22:28:16.572Z,23.13
2018-09-04T22:30:44.668Z,17.83
2018-09-04T22:33:12.625Z,14.53
2018-09-04T22:35:40.855Z,15.73
2018-09-04T22:38:08.851Z,15.40
2018-09-04T22:40:36.798Z,13.27
2018-09-04T22:43:05.105Z,14.90
2018-09-04T22:45:33.314Z,13.10
2018-09-04T22:48:02.050Z,13.40
2018-09-04T22:50:35.798Z,15.13
2018-09-04T22:53:03.918Z,14.53
2018-09-04T22:55:32.213Z,13.47
2018-09-04T22:58:00.428Z,12.73
2018-09-04T23:00:28.738Z,19.87
2018-09-04T23:02:57.015Z,14.93
2018-09-04T23:05:25.318Z,17.00
2018-09-04T23:07:53.228Z,12.63
2018-09-04T23:10:21.292Z,15.87
2018-09-04T23:12:49.657Z,13.57
2018-09-04T23:15:18.256Z,23.53
2018-09-04T23:17:46.210Z,14.73
2018-09-04T23:20:14.100Z,15.60
2018-09-04T23:22:42.351Z,38.57
2018-09-04T23:25:10.312Z,12.00
2018-09-04T23:27:38.549Z,15.07
2018-09-04T23:30:06.615Z,19.43
2018-09-04T23:32:34.913Z,16.40
2018-09-04T23:35:02.726Z,16.43
2018-09-04T23:37:30.764Z,15.33
2018-09-04T23:39:58.904Z,13.10
2018-09-04T23:42:31.055Z,12.03
2018-09-04T23:44:59.364Z,11.57
2018-09-04T23:47:27.190Z,13.27
2018-09-04T23:49:55.197Z,11.53
2018-09-04T23:52:23.646Z,13.03
2018-09-04T23:54:51.555Z,11.57
2018-09-04T23:57:19.606Z,13.73
2018-09-04T23:59:47.447Z,15.73
